createdAt,value
2022-09-14T00:01:14.436Z,11.15
2022-09-14T00:03:40.800Z,11.40
2022-09-14T00:06:09.509Z,13.73
2022-09-14T00:08:36.492Z,13.82
2022-09-14T00:11:08.713Z,13.43
2022-09-14T00:13:36.164Z,14.45
2022-09-14T00:16:05.038Z,14.13
2022-09-14T00:18:32.117Z,15.40
2022-09-14T00:21:03.453Z,11.60
2022-09-14T00:23:30.086Z,13.23
2022-09-14T00:26:03.748Z,13.25
2022-09-14T00:28:30.388Z,13.77
2022-09-14T00:30:57.083Z,11.32
2022-09-14T00:33:23.769Z,13.05
2022-09-14T00:35:50.408Z,12.68
2022-09-14T00:38:17.001Z,11.88
2022-09-14T00:40:43.567Z,15.25
2022-09-14T00:43:14.925Z,14.75
2022-09-14T00:45:41.713Z,15.40
2022-09-14T00:48:08.483Z,17.40
2022-09-14T00:50:35.307Z,17.90
2022-09-14T00:53:02.023Z,11.43
2022-09-14T00:55:28.781Z,13.10
2022-09-14T00:57:55.536Z,16.00
2022-09-14T01:00:27.547Z,15.60
2022-09-14T01:02:54.414Z,12.90
2022-09-14T01:05:30.174Z,14.90
2022-09-14T01:08:18.239Z,16.25
2022-09-14T01:11:35.403Z,14.20
2022-09-14T01:14:09.051Z,10.43
2022-09-14T01:16:44.821Z,10.88
2022-09-14T01:19:22.299Z,13.32
2022-09-14T01:21:50.280Z,11.13
2022-09-14T01:24:40.091Z,12.00
2022-09-14T01:27:27.148Z,11.75
2022-09-14T01:30:09.476Z,10.55
2022-09-14T01:32:39.844Z,12.60
2022-09-14T01:35:16.752Z,14.15
2022-09-14T01:37:51.238Z,12.80
2022-09-14T01:40:41.149Z,12.18
2022-09-14T01:43:30.973Z,13.43
2022-09-14T01:46:05.482Z,14.45
2022-09-14T01:48:37.061Z,10.05
2022-09-14T01:51:08.178Z,11.88
2022-09-14T01:53:43.023Z,13.05
2022-09-14T01:56:20.457Z,14.18
2022-09-14T01:59:05.487Z,11.73
2022-09-14T02:01:37.959Z,10.73
2022-09-14T02:04:08.680Z,11.85
2022-09-14T02:06:39.262Z,11.80
2022-09-14T02:09:08.034Z,11.90
2022-09-14T02:11:35.031Z,11.18
2022-09-14T02:14:01.949Z,8.43
2022-09-14T02:16:29.078Z,11.50
2022-09-14T02:18:55.778Z,11.65
2022-09-14T02:21:26.049Z,16.73
2022-09-14T02:23:53.052Z,13.93
2022-09-14T02:26:20.981Z,12.80
2022-09-14T02:28:47.877Z,11.45
2022-09-14T02:31:32.883Z,10.63
2022-09-14T02:34:31.188Z,14.07
2022-09-14T02:37:12.257Z,14.40
2022-09-14T02:40:13.925Z,12.52
2022-09-14T02:42:59.005Z,14.60
2022-09-14T02:45:45.069Z,12.52
2022-09-14T02:48:39.448Z,12.20
2022-09-14T02:51:24.674Z,14.27
2022-09-14T02:54:01.741Z,11.43
2022-09-14T02:56:29.250Z,13.98
2022-09-14T02:58:56.571Z,11.75
2022-09-14T03:01:24.754Z,12.85
2022-09-14T03:03:51.717Z,12.35
2022-09-14T03:06:18.315Z,11.50
2022-09-14T03:08:45.237Z,13.80
2022-09-14T03:11:12.312Z,12.38
2022-09-14T03:13:39.429Z,10.00
2022-09-14T03:16:14.153Z,11.43
2022-09-14T03:18:41.375Z,10.05
2022-09-14T03:21:13.178Z,9.82
2022-09-14T03:23:48.549Z,16.77
2022-09-14T03:26:17.882Z,10.20
2022-09-14T03:28:45.049Z,9.32
2022-09-14T03:31:12.995Z,12.23
2022-09-14T03:33:40.129Z,11.80
2022-09-14T03:36:16.125Z,9.00
2022-09-14T03:38:47.959Z,9.73
2022-09-14T03:41:14.952Z,10.82
2022-09-14T03:43:43.274Z,8.27
2022-09-14T03:46:21.505Z,8.18
2022-09-14T03:48:48.522Z,9.63
2022-09-14T03:51:16.354Z,8.23
2022-09-14T03:53:44.522Z,8.10
2022-09-14T03:56:17.199Z,8.10
2022-09-14T03:58:45.509Z,7.65
2022-09-14T04:01:16.201Z,6.97
2022-09-14T04:03:43.610Z,7.28
2022-09-14T04:06:10.783Z,7.20
2022-09-14T04:08:39.532Z,6.18
2022-09-14T04:13:46.837Z,7.88
2022-09-14T04:16:15.213Z,7.60
2022-09-14T04:18:42.288Z,7.45
2022-09-14T04:21:13.732Z,11.18
2022-09-14T04:23:57.049Z,7.07
2022-09-14T04:26:29.677Z,7.13
2022-09-14T04:28:57.370Z,8.32
2022-09-14T04:31:25.358Z,10.30
2022-09-14T04:34:31.315Z,7.13
2022-09-14T04:36:58.037Z,8.52
2022-09-14T04:39:26.392Z,8.75
2022-09-14T04:41:53.026Z,7.10
2022-09-14T04:44:19.670Z,6.68
2022-09-14T04:46:47.149Z,8.52
2022-09-14T04:49:15.684Z,7.07
2022-09-14T04:51:42.332Z,9.07
2022-09-14T04:54:10.178Z,6.22
2022-09-14T04:56:37.166Z,7.40
2022-09-14T04:59:04.592Z,7.35
2022-09-14T05:01:34.615Z,9.45
2022-09-14T05:04:01.691Z,6.30
2022-09-14T05:06:30.438Z,8.52
2022-09-14T05:08:57.920Z,9.60
2022-09-14T05:11:27.181Z,7.65
2022-09-14T05:13:55.717Z,5.95
2022-09-14T05:16:38.786Z,6.57
2022-09-14T05:19:07.618Z,7.40
2022-09-14T05:21:36.301Z,9.98
2022-09-14T05:24:05.321Z,8.05
2022-09-14T05:26:32.362Z,11.75
2022-09-14T05:29:01.631Z,6.05
2022-09-14T05:31:29.518Z,7.78
2022-09-14T05:33:56.469Z,8.95
2022-09-14T05:36:28.389Z,6.28
2022-09-14T05:38:55.261Z,6.25
2022-09-14T05:41:21.908Z,11.40
2022-09-14T05:43:48.568Z,9.70
2022-09-14T05:46:17.293Z,8.32
2022-09-14T05:48:44.127Z,9.02
2022-09-14T05:51:15.917Z,8.45
2022-09-14T05:53:43.974Z,10.07
2022-09-14T05:56:13.608Z,7.63
2022-09-14T05:58:41.391Z,8.77
2022-09-14T06:01:14.994Z,9.50
2022-09-14T06:03:42.326Z,13.27
2022-09-14T06:06:10.578Z,11.02
2022-09-14T06:08:37.957Z,7.32
2022-09-14T06:11:06.451Z,8.48
2022-09-14T06:13:33.557Z,6.93
2022-09-14T06:16:05.365Z,6.38
2022-09-14T06:18:33.873Z,7.95
2022-09-14T06:21:00.589Z,8.90
2022-09-14T06:23:28.474Z,10.30
2022-09-14T06:25:56.219Z,6.25
2022-09-14T06:28:24.097Z,7.20
2022-09-14T06:30:51.057Z,7.47
2022-09-14T06:33:18.693Z,14.15
2022-09-14T06:35:57.983Z,8.93
2022-09-14T06:38:25.217Z,7.22
2022-09-14T06:40:57.038Z,7.45
2022-09-14T06:43:28.129Z,7.80
2022-09-14T06:45:59.038Z,6.70
2022-09-14T06:48:27.027Z,7.50
2022-09-14T06:50:53.742Z,5.35
2022-09-14T06:53:20.362Z,7.70
2022-09-14T06:55:47.533Z,6.10
2022-09-14T06:58:14.562Z,7.63
2022-09-14T07:00:41.200Z,6.45
2022-09-14T07:03:07.999Z,7.20
2022-09-14T07:05:34.883Z,5.75
2022-09-14T07:08:01.790Z,6.47
2022-09-14T07:10:28.543Z,6.05
2022-09-14T07:13:12.756Z,5.57
2022-09-14T07:15:39.439Z,5.15
2022-09-14T07:18:06.205Z,8.65
2022-09-14T07:20:33.770Z,6.07
2022-09-14T07:23:00.369Z,6.50
2022-09-14T07:25:26.930Z,6.28
2022-09-14T07:27:53.545Z,7.72
2022-09-14T07:30:20.581Z,5.38
2022-09-14T07:32:47.179Z,6.78
2022-09-14T07:35:13.823Z,5.03
2022-09-14T07:37:40.454Z,10.80
2022-09-14T07:40:07.979Z,4.80
2022-09-14T07:42:34.646Z,9.27
2022-09-14T07:45:01.313Z,6.05
2022-09-14T07:47:27.921Z,6.63
2022-09-14T07:49:54.493Z,5.97
2022-09-14T07:52:21.223Z,7.43
2022-09-14T07:54:47.834Z,10.10
2022-09-14T07:57:14.865Z,5.28
2022-09-14T07:59:41.655Z,4.40
2022-09-14T08:02:10.071Z,3.10
2022-09-14T08:04:37.745Z,7.55
2022-09-14T08:07:04.400Z,5.05
2022-09-14T08:09:31.080Z,4.35
2022-09-14T08:11:57.995Z,4.88
2022-09-14T08:14:25.416Z,2.60
2022-09-14T08:16:52.492Z,2.55
2022-09-14T08:19:21.060Z,4.05
2022-09-14T08:21:48.530Z,3.33
2022-09-14T08:24:18.507Z,3.10
2022-09-14T08:26:45.306Z,5.22
2022-09-14T08:29:13.700Z,2.42
2022-09-14T08:31:40.938Z,3.90
2022-09-14T08:34:07.946Z,2.78
2022-09-14T08:36:37.598Z,2.70
2022-09-14T08:39:06.482Z,14.40
2022-09-14T08:41:43.415Z,6.68
2022-09-14T08:44:28.837Z,4.05
2022-09-14T08:47:16.672Z,3.55
2022-09-14T08:49:47.846Z,5.18
2022-09-14T08:52:24.576Z,3.17
2022-09-14T08:54:55.302Z,5.28
2022-09-14T08:57:44.327Z,3.95
2022-09-14T09:00:44.350Z,4.10
2022-09-14T09:03:49.981Z,3.35
2022-09-14T09:06:41.592Z,4.70
2022-09-14T09:09:18.208Z,3.78
2022-09-14T09:11:48.670Z,4.28
2022-09-14T09:14:31.988Z,3.17
2022-09-14T09:17:04.710Z,4.65
2022-09-14T09:19:42.069Z,3.63
2022-09-14T09:22:22.150Z,3.80
2022-09-14T09:24:55.362Z,4.05
2022-09-14T09:27:24.198Z,4.47
2022-09-14T09:29:51.386Z,4.22
2022-09-14T09:32:25.601Z,4.00
2022-09-14T09:34:52.374Z,4.33
2022-09-14T09:37:22.279Z,2.60
2022-09-14T09:39:50.787Z,3.05
2022-09-14T09:42:26.235Z,3.22
2022-09-14T09:45:02.575Z,3.58
2022-09-14T09:47:41.610Z,3.53
2022-09-14T09:50:14.708Z,4.85
2022-09-14T09:52:51.442Z,4.70
2022-09-14T09:55:20.310Z,4.97
2022-09-14T09:57:47.294Z,4.35
2022-09-14T10:00:14.294Z,3.65
2022-09-14T10:02:41.695Z,5.18
2022-09-14T10:05:12.332Z,4.80
2022-09-14T10:08:02.761Z,4.50
2022-09-14T10:10:35.493Z,11.35
2022-09-14T10:13:04.153Z,5.20
2022-09-14T10:15:33.252Z,7.68
2022-09-14T10:18:09.434Z,5.35
2022-09-14T10:20:46.744Z,5.13
2022-09-14T10:23:19.840Z,5.38
2022-09-14T10:25:48.337Z,4.45
2022-09-14T10:28:29.902Z,5.18
2022-09-14T10:31:19.934Z,8.23
2022-09-14T10:33:52.617Z,5.93
2022-09-14T10:36:25.642Z,5.20
2022-09-14T10:38:58.652Z,4.40
2022-09-14T10:41:27.219Z,6.13
2022-09-14T10:44:12.272Z,4.65
2022-09-14T10:47:04.667Z,5.03
2022-09-14T10:50:05.919Z,4.72
2022-09-14T10:52:51.137Z,6.82
2022-09-14T10:55:42.293Z,7.07
2022-09-14T10:58:47.584Z,5.75
2022-09-14T11:01:40.488Z,5.37
2022-09-14T11:04:22.349Z,7.88
2022-09-14T11:07:12.474Z,6.03
2022-09-14T11:09:54.921Z,16.77
2022-09-14T11:12:40.118Z,6.88
2022-09-14T11:15:20.398Z,4.80
2022-09-14T11:17:59.017Z,6.85
2022-09-14T11:20:43.981Z,7.28
2022-09-14T11:23:35.781Z,6.75
2022-09-14T11:26:17.327Z,8.30
2022-09-14T11:28:48.551Z,7.25
2022-09-14T11:31:32.391Z,9.95
2022-09-14T11:34:20.526Z,8.57
2022-09-14T11:36:55.121Z,11.45
2022-09-14T11:39:29.413Z,8.82
2022-09-14T11:42:02.606Z,8.63
2022-09-14T11:44:37.565Z,8.82
2022-09-14T11:47:08.005Z,9.52
2022-09-14T11:49:42.145Z,10.45
2022-09-14T11:52:19.553Z,8.47
2022-09-14T11:54:47.037Z,8.30
2022-09-14T11:57:19.258Z,9.43
2022-09-14T11:59:51.801Z,9.98
2022-09-14T12:02:30.560Z,7.85
2022-09-14T12:05:10.377Z,9.43
2022-09-14T12:07:40.698Z,9.30
2022-09-14T12:10:16.803Z,8.93
2022-09-14T12:12:54.334Z,9.63
2022-09-14T12:15:30.205Z,10.20
2022-09-14T12:18:22.056Z,11.05
2022-09-14T12:20:59.654Z,9.50
2022-09-14T12:23:30.726Z,11.10
2022-09-14T12:26:00.029Z,10.93
2022-09-14T12:28:34.761Z,11.27
2022-09-14T12:31:02.866Z,10.82
2022-09-14T12:33:32.640Z,10.98
2022-09-14T12:35:59.959Z,11.13
2022-09-14T12:38:49.779Z,9.80
2022-09-14T12:41:19.358Z,11.85
2022-09-14T12:43:48.921Z,10.88
2022-09-14T12:46:21.823Z,11.52
2022-09-14T12:48:48.570Z,11.25
2022-09-14T12:51:27.059Z,10.98
2022-09-14T12:54:09.519Z,9.77
2022-09-14T12:56:46.991Z,12.32
2022-09-14T12:59:33.763Z,10.95
2022-09-14T13:02:21.919Z,11.45
2022-09-14T13:04:53.356Z,11.50
2022-09-14T13:07:21.380Z,14.00
2022-09-14T13:09:54.976Z,10.70
2022-09-14T13:12:44.944Z,11.63
2022-09-14T13:15:16.808Z,11.75
2022-09-14T13:18:01.367Z,10.90
2022-09-14T13:20:29.615Z,14.73
2022-09-14T13:22:58.272Z,12.77
2022-09-14T13:25:36.454Z,16.10
2022-09-14T13:28:14.611Z,14.93
2022-09-14T13:30:44.874Z,14.48
2022-09-14T13:33:18.177Z,17.58
2022-09-14T13:35:53.527Z,17.25
2022-09-14T13:38:25.748Z,18.38
2022-09-14T13:40:54.798Z,18.98
2022-09-14T13:43:22.403Z,20.58
2022-09-14T13:45:50.280Z,19.60
2022-09-14T13:48:17.744Z,16.90
2022-09-14T13:50:48.327Z,16.73
2022-09-14T13:53:48.707Z,21.25
2022-09-14T13:56:31.559Z,17.35
2022-09-14T13:59:23.832Z,18.85
2022-09-14T14:01:58.877Z,21.13
2022-09-14T14:07:02.936Z,16.75
2022-09-14T14:09:47.997Z,21.92
2022-09-14T14:12:22.494Z,14.38
2022-09-14T14:15:00.106Z,15.80
2022-09-14T14:17:29.665Z,15.10
2022-09-14T14:19:58.678Z,12.68
2022-09-14T14:22:35.544Z,29.95
2022-09-14T14:25:18.672Z,20.23
2022-09-14T14:27:47.495Z,24.92
2022-09-14T14:30:15.621Z,20.95
2022-09-14T14:32:42.527Z,24.17
2022-09-14T14:35:30.505Z,17.23
2022-09-14T14:37:58.235Z,12.25
2022-09-14T14:40:27.348Z,13.60
2022-09-14T14:42:54.907Z,13.55
2022-09-14T14:45:26.470Z,17.10
2022-09-14T14:47:54.965Z,17.38
2022-09-14T14:50:30.760Z,18.02
2022-09-14T14:52:57.639Z,18.38
2022-09-14T14:55:25.797Z,17.33
2022-09-14T14:57:52.462Z,19.67
2022-09-14T15:00:24.267Z,18.17
2022-09-14T15:02:51.211Z,19.42
2022-09-14T15:05:18.567Z,19.58
2022-09-14T15:07:45.909Z,20.48
2022-09-14T15:10:15.738Z,21.55
2022-09-14T15:12:42.829Z,22.98
2022-09-14T15:15:14.140Z,23.52
2022-09-14T15:17:41.000Z,17.30
2022-09-14T15:20:08.400Z,18.88
2022-09-14T15:22:36.258Z,17.77
2022-09-14T15:25:04.653Z,18.55
2022-09-14T15:27:31.815Z,17.92
2022-09-14T15:29:58.378Z,19.25
2022-09-14T15:32:25.184Z,15.88
2022-09-14T15:34:54.166Z,18.27
2022-09-14T15:37:20.794Z,18.98
2022-09-14T15:39:50.601Z,17.67
2022-09-14T15:42:18.331Z,17.17
2022-09-14T15:44:45.172Z,19.02
2022-09-14T15:47:14.762Z,15.68
2022-09-14T15:49:42.548Z,23.27
2022-09-14T15:52:10.625Z,16.48
2022-09-14T15:54:38.246Z,18.33
2022-09-14T15:57:07.134Z,16.17
2022-09-14T15:59:33.780Z,16.40
2022-09-14T16:02:00.575Z,15.73
2022-09-14T16:04:27.663Z,16.80
2022-09-14T16:06:54.432Z,18.40
2022-09-14T16:09:22.505Z,17.83
2022-09-14T16:11:49.649Z,21.60
2022-09-14T16:14:16.492Z,21.88
2022-09-14T16:16:43.198Z,21.70
2022-09-14T16:19:12.623Z,23.73
2022-09-14T16:21:40.409Z,22.52
2022-09-14T16:24:46.996Z,25.25
2022-09-14T16:27:13.621Z,26.27
2022-09-14T16:29:40.738Z,27.70
2022-09-14T16:32:07.493Z,29.15
2022-09-14T16:34:34.260Z,29.45
2022-09-14T16:37:00.919Z,35.30
2022-09-14T16:39:29.798Z,34.08
2022-09-14T16:41:56.805Z,31.27
2022-09-14T16:44:25.134Z,37.97
2022-09-14T16:46:53.262Z,33.25
2022-09-14T16:49:26.351Z,34.83
2022-09-14T16:51:54.533Z,37.80
2022-09-14T16:54:22.851Z,40.95
2022-09-14T16:56:49.681Z,38.83
2022-09-14T16:59:17.871Z,48.10
2022-09-14T17:01:47.805Z,36.60
2022-09-14T17:04:21.514Z,40.95
2022-09-14T17:06:49.281Z,37.63
2022-09-14T17:09:29.290Z,41.97
2022-09-14T17:11:57.047Z,44.40
2022-09-14T17:14:27.321Z,48.50
2022-09-14T17:16:54.266Z,38.13
2022-09-14T17:19:20.964Z,42.35
2022-09-14T17:21:48.515Z,43.80
2022-09-14T17:24:16.068Z,41.03
2022-09-14T17:26:42.918Z,44.20
2022-09-14T17:29:10.452Z,41.75
2022-09-14T17:31:39.311Z,43.70
2022-09-14T17:34:07.574Z,46.05
2022-09-14T17:36:34.245Z,41.30
2022-09-14T17:39:04.345Z,45.67
2022-09-14T17:41:33.262Z,45.88
2022-09-14T17:44:02.818Z,46.45
2022-09-14T17:46:30.491Z,45.85
2022-09-14T17:48:58.758Z,51.75
2022-09-14T17:51:27.208Z,59.65
2022-09-14T17:53:55.418Z,44.30
2022-09-14T17:56:25.294Z,50.33
2022-09-14T17:59:02.395Z,48.47
2022-09-14T18:01:29.943Z,90.57
2022-09-14T18:03:59.009Z,60.88
2022-09-14T18:06:31.161Z,54.83
2022-09-14T18:09:03.644Z,65.57
2022-09-14T18:11:31.311Z,59.83
2022-09-14T18:13:58.083Z,62.05
2022-09-14T18:16:25.192Z,59.30
2022-09-14T18:18:52.110Z,61.53
2022-09-14T18:21:18.858Z,60.50
2022-09-14T18:23:53.301Z,56.35
2022-09-14T18:26:20.220Z,51.38
2022-09-14T18:28:47.340Z,50.35
2022-09-14T18:31:16.767Z,57.72
2022-09-14T18:33:50.670Z,56.75
2022-09-14T18:36:17.525Z,54.85
2022-09-14T18:38:48.753Z,65.60
2022-09-14T18:41:16.809Z,55.17
2022-09-14T18:43:48.570Z,69.82
2022-09-14T18:46:15.925Z,52.38
2022-09-14T18:48:45.939Z,46.92
2022-09-14T18:51:14.037Z,53.75
2022-09-14T18:53:40.986Z,53.80
2022-09-14T18:56:10.297Z,58.15
2022-09-14T18:58:38.596Z,56.50
2022-09-14T19:01:05.640Z,51.78
2022-09-14T19:03:32.805Z,55.38
2022-09-14T19:06:07.477Z,54.38
2022-09-14T19:08:34.321Z,59.15
2022-09-14T19:11:08.854Z,61.15
2022-09-14T19:13:35.688Z,56.33
2022-09-14T19:16:10.109Z,59.83
2022-09-14T19:18:37.191Z,56.25
2022-09-14T19:21:08.420Z,64.93
2022-09-14T19:23:36.513Z,74.22
2022-09-14T19:26:05.808Z,62.25
2022-09-14T19:28:33.668Z,58.75
2022-09-14T19:31:00.689Z,67.10
2022-09-14T19:33:27.673Z,63.15
2022-09-14T19:35:54.346Z,60.90
2022-09-14T19:38:39.211Z,60.17
2022-09-14T19:41:06.406Z,52.03
2022-09-14T19:43:34.098Z,58.80
2022-09-14T19:46:08.758Z,53.75
2022-09-14T19:48:35.440Z,55.40
2022-09-14T19:51:10.338Z,69.22
2022-09-14T19:53:37.639Z,65.93
2022-09-14T19:56:06.679Z,64.45
2022-09-14T19:58:38.493Z,100.50
2022-09-14T20:01:06.084Z,64.53
2022-09-14T20:03:33.350Z,62.00
2022-09-14T20:06:01.727Z,57.67
2022-09-14T20:08:29.338Z,53.25
2022-09-14T20:11:28.920Z,59.53
2022-09-14T20:13:58.040Z,57.22
2022-09-14T20:16:25.889Z,62.85
2022-09-14T20:18:52.888Z,61.58
2022-09-14T20:21:22.190Z,60.53
2022-09-14T20:24:16.687Z,71.72
2022-09-14T20:26:49.074Z,60.08
2022-09-14T20:29:17.475Z,68.57
2022-09-14T20:31:44.521Z,75.10
2022-09-14T20:34:11.765Z,56.45
2022-09-14T20:36:38.838Z,53.35
2022-09-14T20:39:05.873Z,59.08
2022-09-14T20:41:34.368Z,63.72
2022-09-14T20:44:01.178Z,60.22
2022-09-14T20:46:36.282Z,56.20
2022-09-14T20:51:31.608Z,56.47
2022-09-14T20:53:58.588Z,55.97
2022-09-14T20:56:28.368Z,65.00
2022-09-14T20:58:58.474Z,63.35
2022-09-14T21:01:27.617Z,56.35
2022-09-14T21:03:55.333Z,57.40
2022-09-14T21:06:24.238Z,52.15
2022-09-14T21:08:51.247Z,53.30
2022-09-14T21:11:25.714Z,56.97
2022-09-14T21:13:53.777Z,48.92
2022-09-14T21:16:20.391Z,44.33
2022-09-14T21:18:48.461Z,48.83
2022-09-14T21:21:17.444Z,49.30
2022-09-14T21:23:44.398Z,49.67
2022-09-14T21:26:12.836Z,47.35
2022-09-14T21:28:40.966Z,45.33
2022-09-14T21:31:20.124Z,46.78
2022-09-14T21:33:49.798Z,44.15
2022-09-14T21:36:25.074Z,41.10
2022-09-14T21:41:19.707Z,40.88
2022-09-14T21:43:47.202Z,46.20
2022-09-14T21:46:14.602Z,37.78
2022-09-14T21:48:41.284Z,38.63
2022-09-14T21:51:15.495Z,37.78
2022-09-14T21:53:48.078Z,33.22
2022-09-14T21:56:16.355Z,39.85
2022-09-14T21:58:43.780Z,39.58
2022-09-14T22:01:12.159Z,31.15
2022-09-14T22:03:39.227Z,38.50
2022-09-14T22:06:11.132Z,38.65
2022-09-14T22:08:37.739Z,37.63
2022-09-14T22:11:04.307Z,39.00
2022-09-14T22:13:33.723Z,39.20
2022-09-14T22:16:26.552Z,34.55
2022-09-14T22:18:58.131Z,32.00
2022-09-14T22:21:27.280Z,34.72
2022-09-14T22:23:56.626Z,33.75
2022-09-14T22:26:26.129Z,34.33
2022-09-14T22:28:57.330Z,31.88
2022-09-14T22:31:24.119Z,33.90
2022-09-14T22:33:51.230Z,34.50
2022-09-14T22:36:18.019Z,27.13
2022-09-14T22:38:45.746Z,30.27
2022-09-14T22:41:19.850Z,26.48
2022-09-14T22:43:47.099Z,26.67
2022-09-14T22:46:14.651Z,26.65
2022-09-14T22:48:41.470Z,31.40
2022-09-14T22:51:11.366Z,27.73
2022-09-14T22:53:38.084Z,25.55
2022-09-14T22:56:19.732Z,25.92
2022-09-14T22:58:47.278Z,26.35
2022-09-14T23:01:16.789Z,26.48
2022-09-14T23:03:43.902Z,28.55
2022-09-14T23:06:10.923Z,26.05
2022-09-14T23:08:38.330Z,24.10
2022-09-14T23:11:08.213Z,24.33
2022-09-14T23:13:35.920Z,24.98
2022-09-14T23:16:09.341Z,25.27
2022-09-14T23:18:35.998Z,24.33
2022-09-14T23:21:03.763Z,23.75
2022-09-14T23:23:30.397Z,23.08
2022-09-14T23:26:02.458Z,20.17
2022-09-14T23:28:29.188Z,23.80
2022-09-14T23:30:55.811Z,21.30
2022-09-14T23:33:22.448Z,27.23
2022-09-14T23:35:49.741Z,23.45
2022-09-14T23:38:16.429Z,24.60
2022-09-14T23:40:43.180Z,22.75
2022-09-14T23:43:10.270Z,23.27
2022-09-14T23:45:37.018Z,25.35
2022-09-14T23:48:04.031Z,26.83
2022-09-14T23:50:31.725Z,26.80
2022-09-14T23:52:58.329Z,27.95
2022-09-14T23:55:25.214Z,29.33
2022-09-14T23:57:51.991Z,33.20
